Time;durP1;ratioP1;P1;durP2;ratioP2;P2;SDS_P1;SDS_P2;PMS_P1;PMS_P2;Temp;Humidity;BMP_temperature;BMP_pressure;BME280_temperature;BME280_humidity;BME280_pressure;Samples;Min_cycle;Max_cycle;Signal;HPM_P1;HPM_P2
2022/04/21 00:01:08;;;;;;;6.85;1.50;;;;;;;10.69;35.49;99262.09;6126859;23;20100;-68
2022/04/21 00:03:35;;;;;;;2.95;1.48;;;;;;;10.65;36.18;99255.63;6125153;23;20026;-68
2022/04/21 00:06:02;;;;;;;5.78;1.10;;;;;;;10.66;36.02;99251.66;6124833;23;20053;-68
2022/04/21 00:08:29;;;;;;;3.53;1.55;;;;;;;10.65;36.19;99263.13;6126855;23;20032;-68
2022/04/21 00:10:56;;;;;;;2.88;1.25;;;;;;;10.60;35.88;99249.44;6126744;23;20335;-69
2022/04/21 00:13:23;;;;;;;2.78;1.40;;;;;;;10.60;35.81;99268.91;6126702;23;20026;-69
2022/04/21 00:15:50;;;;;;;2.53;1.10;;;;;;;10.58;36.18;99263.69;6126737;23;20032;-69
2022/04/21 00:18:17;;;;;;;5.72;1.20;;;;;;;10.58;35.96;99260.09;6126846;23;20096;-69
2022/04/21 00:20:44;;;;;;;2.92;0.98;;;;;;;10.52;36.76;99259.50;6126742;23;20053;-69
2022/04/21 00:23:26;;;;;;;2.65;1.10;;;;;;;10.49;36.38;99270.47;6125900;23;20030;-69
2022/04/21 00:25:55;;;;;;;2.90;1.15;;;;;;;10.41;36.44;99261.03;6126311;23;20026;-68
2022/04/21 00:28:22;;;;;;;3.22;1.30;;;;;;;10.36;36.51;99261.22;6126385;23;20021;-68
2022/04/21 00:30:49;;;;;;;2.45;1.17;;;;;;;10.38;36.65;99269.22;6125307;23;20053;-67
2022/04/21 00:33:17;;;;;;;2.08;1.05;;;;;;;10.42;36.63;99264.66;6126545;23;20037;-67
2022/04/21 00:35:44;;;;;;;5.20;1.38;;;;;;;10.38;36.54;99258.09;6126127;23;20116;-68
2022/04/21 00:38:11;;;;;;;4.13;1.48;;;;;;;10.35;36.44;99264.34;6126047;23;20030;-68
2022/04/21 00:40:38;;;;;;;1.98;1.10;;;;;;;10.33;36.70;99261.13;6126472;23;20026;-67
2022/04/21 00:43:06;;;;;;;4.22;1.00;;;;;;;10.34;36.79;99262.72;6126005;23;20025;-68
2022/04/21 00:45:33;;;;;;;4.65;1.20;;;;;;;10.37;36.99;99267.63;6126435;23;20481;-69
2022/04/21 00:48:02;;;;;;;2.63;1.13;;;;;;;10.33;36.34;99266.69;6126349;23;20077;-70
2022/04/21 00:50:33;;;;;;;2.60;1.20;;;;;;;10.29;36.81;99254.56;6126386;23;20419;-69
2022/04/21 00:53:01;;;;;;;6.20;1.88;;;;;;;10.33;37.21;99261.13;6126087;23;20025;-70
2022/04/21 00:55:31;;;;;;;2.50;1.30;;;;;;;10.32;37.50;99260.28;6126639;23;20026;-70
2022/04/21 00:58:01;;;;;;;3.60;1.23;;;;;;;10.34;36.75;99254.38;6126639;23;20050;-70
2022/04/21 01:00:28;;;;;;;4.40;1.50;;;;;;;10.34;37.08;99263.56;6126358;23;20053;-69
2022/04/21 01:02:57;;;;;;;2.88;1.20;;;;;;;10.37;36.97;99265.66;6126184;23;20025;-70
2022/04/21 01:05:28;;;;;;;3.90;1.30;;;;;;;10.38;36.87;99249.78;6126335;23;20113;-70
2022/04/21 01:08:04;;;;;;;3.03;1.48;;;;;;;10.36;36.79;99254.88;6126109;23;20025;-70
2022/04/21 01:10:34;;;;;;;6.55;1.48;;;;;;;10.29;37.51;99255.41;6126167;23;20028;-70
2022/04/21 01:13:06;;;;;;;5.00;1.50;;;;;;;10.28;37.77;99259.34;6126083;23;20030;-70
2022/04/21 01:15:35;;;;;;;3.47;1.30;;;;;;;10.25;37.61;99254.44;6126180;23;20044;-69
2022/04/21 01:18:03;;;;;;;3.20;1.20;;;;;;;10.23;37.63;99256.75;6126319;23;20030;-69
2022/04/21 01:20:30;;;;;;;5.22;1.52;;;;;;;10.17;37.79;99257.28;6126224;23;20021;-70
2022/04/21 01:22:57;;;;;;;5.10;1.48;;;;;;;10.14;38.40;99257.94;6125622;23;20122;-70
2022/04/21 01:25:24;;;;;;;2.42;1.23;;;;;;;10.12;38.58;99260.25;6125701;23;20425;-69
2022/04/21 01:28:00;;;;;;;6.28;1.20;;;;;;;10.07;38.30;99252.13;6125991;23;20049;-70
2022/04/21 01:30:27;;;;;;;2.95;1.10;;;;;;;10.01;38.54;99268.13;6126390;23;20029;-70
2022/04/21 01:32:54;;;;;;;3.15;1.40;;;;;;;9.99;38.95;99252.94;6125953;23;20033;-70
2022/04/21 01:35:21;;;;;;;3.63;1.30;;;;;;;9.95;38.73;99260.34;6148640;23;20034;-70
2022/04/21 01:43:19;;;;;;;4.07;1.20;;;;;;;9.88;39.16;99246.13;6125659;23;20057;-70
2022/04/21 01:45:46;;;;;;;2.35;1.20;;;;;;;9.90;38.63;99254.97;6125981;23;20026;-70
2022/04/21 01:48:13;;;;;;;2.45;1.30;;;;;;;9.81;38.87;99237.53;6125849;23;20022;-70
2022/04/21 01:50:40;;;;;;;2.88;1.00;;;;;;;9.82;39.46;99247.47;6125846;23;20026;-69
2022/04/21 01:53:07;;;;;;;5.20;1.65;;;;;;;9.79;39.78;99253.69;6125427;23;20076;-70
2022/04/21 01:55:35;;;;;;;6.00;1.33;;;;;;;9.75;39.52;99263.84;6125820;23;20513;-70
2022/04/21 01:58:02;;;;;;;4.57;1.13;;;;;;;9.72;39.51;99256.19;6125414;23;20033;-69
2022/04/21 02:00:29;;;;;;;3.88;1.20;;;;;;;9.74;39.55;99259.47;6125841;23;20029;-69
2022/04/21 02:02:56;;;;;;;2.63;1.10;;;;;;;9.77;39.29;99258.78;6125718;23;20105;-71
2022/04/21 02:05:23;;;;;;;1.77;0.98;;;;;;;9.81;39.65;99255.00;6125876;23;20029;-70
2022/04/21 02:07:50;;;;;;;1.70;1.08;;;;;;;9.76;40.06;99257.16;6125632;23;20026;-70
2022/04/21 02:10:19;;;;;;;1.95;1.13;;;;;;;9.74;40.28;99260.25;6125673;23;20446;-70
2022/04/21 02:12:46;;;;;;;2.55;1.20;;;;;;;9.70;40.45;99250.16;6125731;23;20033;-70
2022/04/21 02:15:14;;;;;;;2.28;1.00;;;;;;;9.66;40.49;99251.97;6125843;23;20030;-70
2022/04/21 02:17:41;;;;;;;2.67;1.15;;;;;;;9.62;41.00;99248.25;6125666;23;20025;-70
2022/04/21 02:20:11;;;;;;;3.17;1.20;;;;;;;9.61;40.61;99257.69;6125772;23;20343;-70
2022/04/21 02:22:38;;;;;;;2.67;1.00;;;;;;;9.59;40.95;99246.13;6125448;23;20033;-70
2022/04/21 02:25:12;;;;;;;2.72;1.20;;;;;;;9.58;40.53;99239.75;6125696;23;20057;-69
2022/04/21 02:27:42;;;;;;;2.10;1.00;;;;;;;9.61;41.04;99243.81;6125551;23;20450;-70
2022/04/21 02:30:12;;;;;;;1.92;0.90;;;;;;;9.53;41.00;99241.91;6125394;23;20026;-70
2022/04/21 02:32:40;;;;;;;2.00;1.20;;;;;;;9.45;41.45;99251.09;6125710;23;20399;-70
2022/04/21 02:35:09;;;;;;;2.88;1.10;;;;;;;9.39;41.42;99246.88;6125823;23;20113;-69
2022/04/21 02:37:37;;;;;;;2.75;1.38;;;;;;;9.42;41.67;99246.19;6126015;23;20450;-71
2022/04/21 02:40:05;;;;;;;4.80;1.00;;;;;;;9.36;41.52;99253.06;6126018;23;20069;-70
2022/04/21 02:42:33;;;;;;;6.43;1.10;;;;;;;9.28;41.82;99230.56;6125376;23;20347;-70
2022/04/21 02:45:00;;;;;;;4.70;1.30;;;;;;;9.27;42.19;99250.34;6148188;23;20437;-71
2022/04/21 02:47:29;;;;;;;2.20;1.13;;;;;;;9.22;42.37;99251.34;6127657;23;20077;-70
2022/04/21 02:49:57;;;;;;;4.93;1.30;;;;;;;9.26;41.89;99246.75;6127349;23;20053;-70
2022/04/21 02:52:24;;;;;;;2.50;1.20;;;;;;;9.26;42.27;99260.63;6127617;23;20101;-70
2022/04/21 02:57:37;;;;;;;2.55;1.13;;;;;;;9.32;41.80;99246.56;6127302;23;20030;-70
2022/04/21 03:00:06;;;;;;;2.78;1.00;;;;;;;9.29;42.34;99250.81;6127085;23;20344;-70
2022/04/21 03:02:33;;;;;;;2.95;1.33;;;;;;;9.20;42.15;99227.81;6150651;23;20026;-70
2022/04/21 03:05:00;;;;;;;2.58;1.10;;;;;;;9.27;42.36;99236.47;6125516;23;20030;-69
2022/04/21 03:07:29;;;;;;;3.17;1.17;;;;;;;9.29;42.69;99243.31;6127348;23;20032;-71
2022/04/21 03:09:56;;;;;;;4.10;1.40;;;;;;;9.32;42.34;99235.47;6127061;23;20021;-69
2022/04/21 03:12:26;;;;;;;5.18;1.33;;;;;;;9.28;42.48;99252.78;6127563;23;20026;-69
2022/04/21 03:14:55;;;;;;;8.05;1.70;;;;;;;9.25;42.44;99235.97;6127158;23;20057;-70
2022/04/21 03:17:23;;;;;;;3.10;1.20;;;;;;;9.25;42.42;99236.78;6127136;23;20052;-70
2022/04/21 03:19:50;;;;;;;3.42;1.30;;;;;;;9.29;42.57;99243.31;6126922;23;20026;-69
2022/04/21 03:25:06;;;;;;;2.97;1.30;;;;;;;9.19;42.91;99260.31;6127455;23;20414;-70
2022/04/21 03:27:34;;;;;;;2.45;0.90;;;;;;;9.24;42.83;99256.56;6126774;23;20036;-69
2022/04/21 03:30:05;;;;;;;9.18;1.52;;;;;;;9.25;42.68;99264.53;6126716;23;20053;-70
2022/04/21 03:32:32;;;;;;;5.55;1.00;;;;;;;9.28;42.86;99279.72;6127808;23;20037;-70
2022/04/21 03:35:00;;;;;;;5.53;1.08;;;;;;;9.30;42.59;99261.56;6126979;23;20026;-71
2022/04/21 03:37:29;;;;;;;3.33;1.10;;;;;;;9.33;42.40;99266.47;6127040;23;20507;-70
2022/04/21 03:39:56;;;;;;;2.47;1.20;;;;;;;9.38;42.78;99270.22;6126899;23;20028;-70
2022/04/21 03:42:27;;;;;;;9.15;1.20;;;;;;;9.32;42.72;99274.31;6127404;23;20053;-71
2022/04/21 03:44:55;;;;;;;6.70;1.20;;;;;;;9.24;42.74;99273.22;6126575;23;20030;-71
2022/04/21 03:47:22;;;;;;;3.13;1.05;;;;;;;9.19;42.88;99276.16;6127045;23;20025;-70
2022/04/21 03:49:50;;;;;;;3.47;1.00;;;;;;;9.22;43.03;99269.94;6126453;23;20028;-69
2022/04/21 03:52:17;;;;;;;3.92;1.10;;;;;;;9.25;42.96;99286.75;6126935;23;20049;-69
2022/04/21 03:54:44;;;;;;;7.47;1.25;;;;;;;9.22;42.67;99269.94;6126571;23;20022;-70
2022/04/21 03:57:12;;;;;;;9.23;1.00;;;;;;;9.26;42.58;99282.81;6125793;23;20414;-70
2022/04/21 03:59:39;;;;;;;3.08;1.10;;;;;;;9.28;42.63;99286.09;6126884;23;20018;-73
2022/04/21 04:02:06;;;;;;;2.60;1.05;;;;;;;9.27;42.82;99269.75;6126627;23;20052;-70
2022/04/21 04:04:35;;;;;;;5.10;1.30;;;;;;;9.18;43.20;99280.06;6126496;23;20084;-71
2022/04/21 04:12:38;;;;;;;5.13;1.00;;;;;;;9.22;42.91;99262.44;6126843;23;20021;-71
2022/04/21 04:15:07;;;;;;;5.10;1.23;;;;;;;9.22;43.19;99265.22;6126363;23;20037;-71
2022/04/21 04:17:34;;;;;;;3.55;1.40;;;;;;;9.22;42.78;99281.84;6126781;23;20033;-72
2022/04/21 04:20:01;;;;;;;4.57;1.17;;;;;;;9.20;43.27;99270.25;6126524;23;20021;-63
2022/04/21 04:22:29;;;;;;;6.82;1.30;;;;;;;9.23;43.13;99271.56;6126651;23;20462;-64
2022/04/21 04:24:56;;;;;;;9.35;1.20;;;;;;;9.23;43.56;99266.81;6126102;23;20025;-65
2022/04/21 04:27:24;;;;;;;4.93;1.23;;;;;;;9.24;43.18;99262.91;6126424;23;20025;-64
2022/04/21 04:29:52;;;;;;;8.65;1.33;;;;;;;9.17;43.52;99248.72;6126275;23;20097;-66
2022/04/21 04:32:20;;;;;;;3.75;1.45;;;;;;;9.12;43.80;99254.44;6126921;23;20032;-65
2022/04/21 04:34:47;;;;;;;7.38;1.30;;;;;;;9.18;43.35;99257.88;6126381;23;20304;-64
2022/04/21 04:37:14;;;;;;;2.72;1.08;;;;;;;9.23;43.96;99261.28;6126444;23;20459;-64
2022/04/21 04:39:41;;;;;;;2.28;0.98;;;;;;;9.24;43.94;99262.91;6124441;23;20053;-65
2022/04/21 04:42:17;;;;;;;7.00;1.10;;;;;;;9.23;44.06;99277.94;6126426;23;20358;-65
2022/04/21 04:44:45;;;;;;;3.28;0.90;;;;;;;9.13;45.03;99261.63;6126240;23;20498;-65
2022/04/21 04:47:13;;;;;;;6.93;1.10;;;;;;;9.05;45.78;99281.06;6126407;23;20068;-64
2022/04/21 04:49:41;;;;;;;2.65;1.15;;;;;;;8.90;46.62;99282.41;6126263;23;20392;-66
2022/04/21 04:52:08;;;;;;;5.10;2.63;;;;;;;8.87;46.38;99274.72;6126008;23;20026;-65
2022/04/21 04:54:35;;;;;;;3.00;1.50;;;;;;;8.89;47.03;99277.19;6125958;23;20034;-65
2022/04/21 04:57:03;;;;;;;5.75;1.42;;;;;;;8.78;48.00;99262.84;6125910;23;20030;-65
2022/04/21 04:59:29;;;;;;;2.80;1.30;;;;;;;8.77;48.42;99260.38;6125748;23;20049;-66
2022/04/21 05:01:57;;;;;;;4.85;1.52;;;;;;;8.83;48.04;99265.41;6126335;23;20032;-64
2022/04/21 05:04:27;;;;;;;3.38;1.08;;;;;;;8.78;48.72;99273.09;6126203;23;20474;-65
2022/04/21 05:06:55;;;;;;;2.67;1.50;;;;;;;8.74;48.79;99264.59;6126289;23;20099;-65
2022/04/21 05:09:24;;;;;;;1.77;1.08;;;;;;;8.71;48.98;99264.47;6126175;23;20273;-65
2022/04/21 05:11:58;;;;;;;4.45;1.48;;;;;;;8.79;49.27;99269.16;6126221;23;20049;-65
2022/04/21 05:14:25;;;;;;;5.05;2.20;;;;;;;8.77;49.31;99269.50;6126057;23;20088;-65
2022/04/21 05:16:52;;;;;;;6.97;1.20;;;;;;;8.84;49.23;99352.22;6126532;23;20057;-65
2022/04/21 05:19:21;;;;;;;2.40;1.30;;;;;;;8.77;49.40;99285.34;6126040;23;20030;-64
2022/04/21 05:21:49;;;;;;;3.72;1.63;;;;;;;8.75;49.71;99280.13;6126327;23;20026;-64
2022/04/21 05:24:17;;;;;;;3.92;1.60;;;;;;;8.68;50.40;99301.97;6125463;23;20112;-65
2022/04/21 05:26:45;;;;;;;6.22;1.45;;;;;;;8.61;50.93;99315.50;6126022;23;20026;-64
2022/04/21 05:32:01;;;;;;;3.70;1.67;;;;;;;8.46;51.91;99301.31;6126087;23;20100;-64
2022/04/21 05:34:30;;;;;;;4.90;1.77;;;;;;;8.47;52.25;99314.03;6125607;23;20084;-65
2022/04/21 05:36:58;;;;;;;6.75;1.48;;;;;;;8.38;53.10;99333.41;6125921;23;20473;-65
2022/04/21 05:39:30;;;;;;;16.05;3.67;;;;;;;8.34;53.37;99324.13;6125427;23;20026;-64
2022/04/21 05:41:58;;;;;;;3.92;2.25;;;;;;;8.29;53.53;99326.25;6125972;23;20029;-65
2022/04/21 05:44:27;;;;;;;10.07;1.40;;;;;;;8.24;53.58;99321.66;6125772;23;20037;-65
2022/04/21 05:46:54;;;;;;;3.30;1.60;;;;;;;8.30;53.92;99330.63;6120795;23;20517;-64
2022/04/21 05:49:21;;;;;;;2.42;1.33;;;;;;;8.27;54.11;99342.38;6125669;23;20387;-64
2022/04/21 05:51:49;;;;;;;2.75;1.40;;;;;;;8.16;54.49;99358.44;6125822;23;20458;-65
2022/04/21 05:54:16;;;;;;;3.75;1.50;;;;;;;8.07;55.27;99356.75;6125497;23;20073;-63
2022/04/21 05:56:44;;;;;;;11.55;5.25;;;;;;;8.03;54.61;99351.06;6125237;23;20108;-65
2022/04/21 05:59:11;;;;;;;21.17;6.63;;;;;;;8.02;55.27;99332.00;6125514;23;20057;-66
2022/04/21 06:01:38;;;;;;;3.40;1.80;;;;;;;7.99;55.49;99365.88;6125723;23;20018;-65
2022/04/21 06:04:05;;;;;;;5.55;2.10;;;;;;;7.99;55.80;99355.59;6125477;23;20383;-64
2022/04/21 06:06:33;;;;;;;3.78;1.67;;;;;;;8.05;56.18;99356.28;6126780;23;20073;-64
2022/04/21 06:09:00;;;;;;;4.18;1.77;;;;;;;8.06;56.19;99358.75;6125600;23;20029;-64
2022/04/21 06:11:27;;;;;;;4.78;1.80;;;;;;;8.15;55.88;99369.84;6125596;23;20354;-64
2022/04/21 06:13:54;;;;;;;7.38;1.80;;;;;;;8.10;55.88;99386.59;6125572;23;20026;-65
2022/04/21 06:16:22;;;;;;;3.88;1.95;;;;;;;8.09;56.28;99373.91;6125737;23;20025;-65
2022/04/21 06:18:50;;;;;;;5.40;2.28;;;;;;;8.11;56.43;99372.44;6125643;23;20033;-64
2022/04/21 06:21:17;;;;;;;4.32;1.85;;;;;;;8.13;56.16;99381.25;6126942;23;20125;-64
2022/04/21 06:23:45;;;;;;;4.07;1.52;;;;;;;8.20;56.47;99366.94;6125556;23;20374;-64
2022/04/21 06:26:12;;;;;;;12.07;2.08;;;;;;;8.15;56.73;99383.69;6128392;23;20034;-65
2022/04/21 06:28:41;;;;;;;4.55;1.80;;;;;;;8.20;56.74;99395.44;6125841;23;20060;-64
2022/04/21 06:31:08;;;;;;;11.55;4.53;;;;;;;8.20;56.97;99403.75;6127466;23;20398;-65
2022/04/21 06:33:36;;;;;;;12.32;4.72;;;;;;;8.16;56.89;99402.78;6127513;23;20044;-64
2022/04/21 06:36:03;;;;;;;3.95;2.17;;;;;;;8.16;56.96;99397.22;6127987;23;20032;-64
2022/04/21 06:38:30;;;;;;;9.98;2.75;;;;;;;8.07;57.64;99401.91;6127250;23;20076;-64
2022/04/21 06:40:57;;;;;;;3.55;1.67;;;;;;;7.96;58.25;99403.31;6127451;23;20025;-64
2022/04/21 06:48:57;;;;;;;4.65;1.67;;;;;;;7.88;59.10;99417.97;6127447;23;20474;-64
2022/04/21 06:51:27;;;;;;;5.32;2.50;;;;;;;8.02;58.65;99424.22;6126446;23;20018;-64
2022/04/21 06:53:54;;;;;;;;;;;;;;;7.95;58.87;99423.84;6127966;23;20029;-64
2022/04/21 06:56:22;;;;;;;6.28;2.08;;;;;;;8.03;58.69;99416.72;6128094;23;20337;-64
2022/04/21 06:58:53;;;;;;;6.38;2.30;;;;;;;8.13;58.56;99419.19;6127230;23;20112;-64
2022/04/21 07:01:21;;;;;;;8.70;2.17;;;;;;;8.16;58.63;99421.34;6127437;23;20022;-64
2022/04/21 07:03:48;;;;;;;9.93;3.92;;;;;;;8.22;58.25;99417.28;6127107;23;20466;-64
2022/04/21 07:06:15;;;;;;;8.23;3.22;;;;;;;8.31;58.16;99430.06;6127592;23;20030;-64
2022/04/21 07:08:42;;;;;;;4.60;2.35;;;;;;;8.25;58.58;99423.03;6127136;23;20112;-63
2022/04/21 07:11:09;;;;;;;4.93;2.20;;;;;;;8.25;58.75;99419.44;6126976;23;20021;-64
2022/04/21 07:13:36;;;;;;;6.00;2.10;;;;;;;8.24;58.91;99426.97;6126777;23;20112;-64
2022/04/21 07:16:03;;;;;;;7.00;2.08;;;;;;;8.25;58.83;99445.22;6127184;23;20362;-64
2022/04/21 07:18:30;;;;;;;6.28;2.28;;;;;;;8.26;58.80;99430.22;6126662;23;20025;-65
2022/04/21 07:21:00;;;;;;;3.83;2.13;;;;;;;8.37;58.74;99436.28;6127086;23;20025;-68
2022/04/21 07:23:27;;;;;;;8.27;2.10;;;;;;;8.41;58.80;99438.09;6126656;23;20064;-64
2022/04/21 07:25:54;;;;;;;4.50;2.00;;;;;;;8.29;59.64;99446.19;6127139;23;20026;-64
2022/04/21 07:28:21;;;;;;;5.85;2.60;;;;;;;8.18;59.18;99442.06;6126736;23;20036;-66
2022/04/21 07:30:48;;;;;;;6.57;2.38;;;;;;;8.05;59.95;99487.28;6126760;23;20390;-64
2022/04/21 07:33:17;;;;;;;6.45;2.45;;;;;;;7.95;60.84;99456.25;6126743;23;20112;-65
2022/04/21 07:35:45;;;;;;;9.20;2.42;;;;;;;7.98;60.21;99448.16;6126945;23;20041;-64
2022/04/21 07:38:12;;;;;;;11.52;2.65;;;;;;;8.08;60.55;99458.94;6126926;23;20030;-64
2022/04/21 07:40:41;;;;;;;5.53;2.92;;;;;;;8.09;60.47;99454.22;6126602;23;20101;-64
2022/04/21 07:43:08;;;;;;;7.43;2.83;;;;;;;8.18;60.47;99449.56;6126827;23;20022;-63
2022/04/21 07:45:41;;;;;;;4.50;2.25;;;;;;;8.21;60.44;99465.53;6126754;23;20026;-65
2022/04/21 07:48:08;;;;;;;11.13;2.72;;;;;;;8.29;59.83;99454.50;6126979;23;20497;-64
2022/04/21 07:50:35;;;;;;;5.05;2.00;;;;;;;8.34;60.48;99468.22;6127493;23;20517;-65
2022/04/21 07:53:20;;;;;;;7.60;2.00;;;;;;;8.22;60.49;99458.84;6127772;23;20036;-64
2022/04/21 07:55:52;;;;;;;8.20;2.13;;;;;;;8.17;60.92;99467.31;6124935;23;20113;-65
2022/04/21 07:58:21;;;;;;;11.77;1.90;;;;;;;8.16;60.92;99474.81;6126288;23;20030;-63
2022/04/21 08:00:49;;;;;;;6.43;2.65;;;;;;;8.14;61.11;99471.53;6126411;23;20018;-65
2022/04/21 08:03:18;;;;;;;3.40;2.10;;;;;;;8.14;61.19;99468.75;6126656;23;20026;-64
2022/04/21 08:05:46;;;;;;;2.93;1.70;;;;;;;8.07;61.16;99476.72;6127227;23;20108;-63
2022/04/21 08:08:13;;;;;;;6.85;1.90;;;;;;;8.07;61.16;99481.44;6126673;23;20030;-64
2022/04/21 08:10:40;;;;;;;4.47;2.03;;;;;;;7.98;61.74;99488.88;6126593;23;20109;-64
2022/04/21 08:13:07;;;;;;;3.42;1.98;;;;;;;7.94;61.61;99483.16;6126613;23;20033;-64
2022/04/21 08:15:35;;;;;;;6.95;2.08;;;;;;;7.90;62.22;99509.84;6126705;23;20049;-65
2022/04/21 08:18:05;;;;;;;3.72;1.63;;;;;;;7.75;62.79;99523.28;6126536;23;20029;-65
2022/04/21 08:20:34;;;;;;;4.30;2.28;;;;;;;7.70;62.97;99521.44;6126378;23;20454;-65
2022/04/21 08:23:04;;;;;;;19.53;2.53;;;;;;;7.58;63.49;99499.00;6126020;23;20033;-65
2022/04/21 08:34:21;;;;;;;5.10;1.52;;;;;;;7.44;64.04;99542.56;6126502;23;20026;-65
2022/04/21 08:36:53;;;;;;;6.28;2.30;;;;;;;7.44;65.07;99534.25;6126808;23;20032;-65
2022/04/21 08:39:20;;;;;;;3.88;1.70;;;;;;;7.44;65.24;99528.72;6126346;23;20414;-66
2022/04/21 08:41:51;;;;;;;6.10;1.98;;;;;;;7.56;64.46;99528.97;6126444;23;20018;-66
2022/04/21 08:44:19;;;;;;;4.43;2.00;;;;;;;7.64;64.99;99525.44;6126958;23;20395;-65
2022/04/21 08:46:48;;;;;;;7.25;2.10;;;;;;;7.72;64.17;99530.25;6126391;23;20026;-65
2022/04/21 08:49:18;;;;;;;4.25;1.88;;;;;;;7.79;64.40;99536.16;6126184;23;20052;-65
2022/04/21 08:51:45;;;;;;;4.30;1.95;;;;;;;7.83;64.08;99539.94;6126494;23;20081;-65
2022/04/21 08:54:12;;;;;;;4.18;1.60;;;;;;;7.79;64.39;99552.78;6126129;23;20037;-65
2022/04/21 08:56:40;;;;;;;3.33;2.08;;;;;;;7.64;64.86;99530.97;6126272;23;20104;-65
2022/04/21 08:59:07;;;;;;;3.20;1.83;;;;;;;7.61;64.79;99550.97;6125998;23;20021;-65
2022/04/21 09:01:34;;;;;;;6.72;1.83;;;;;;;7.63;65.02;99542.38;6125889;23;20462;-65
2022/04/21 09:04:02;;;;;;;4.45;2.17;;;;;;;7.58;65.14;99546.06;6125935;23;20030;-65
2022/04/21 09:06:29;;;;;;;4.55;1.75;;;;;;;7.56;65.19;99545.59;6126102;23;20026;-65
2022/04/21 09:09:21;;;;;;;5.35;2.10;;;;;;;7.49;66.10;99575.63;6126091;23;20458;-65
2022/04/21 09:11:58;;;;;;;3.92;1.98;;;;;;;7.44;65.94;99567.47;6126084;23;20026;-64
2022/04/21 09:14:25;;;;;;;5.55;2.17;;;;;;;7.42;66.01;99569.72;6125704;23;20462;-65
2022/04/21 09:16:52;;;;;;;5.60;2.20;;;;;;;7.43;66.47;99590.72;6126049;23;20033;-64
2022/04/21 09:19:20;;;;;;;4.80;1.70;;;;;;;7.44;66.26;99564.69;6125845;23;20025;-65
2022/04/21 09:21:50;;;;;;;4.75;1.92;;;;;;;7.51;66.63;99567.84;6126116;23;20109;-63
2022/04/21 09:24:20;;;;;;;3.15;1.67;;;;;;;7.52;66.49;99580.53;6125494;23;20026;-65
2022/04/21 09:26:48;;;;;;;4.05;2.17;;;;;;;7.47;66.20;99589.78;6126163;23;20340;-66
2022/04/21 09:29:33;;;;;;;3.45;1.90;;;;;;;7.50;66.05;99571.75;6125765;23;20117;-65
2022/04/21 09:32:02;;;;;;;6.30;2.22;;;;;;;7.56;66.49;99586.28;6125864;23;20359;-65
2022/04/21 09:34:35;;;;;;;5.85;1.92;;;;;;;7.67;66.18;99580.19;6125545;23;20029;-65
2022/04/21 09:37:05;;;;;;;4.25;2.13;;;;;;;7.76;66.23;99580.28;6126377;23;20357;-65
2022/04/21 09:39:49;;;;;;;4.88;2.25;;;;;;;7.90;66.05;99587.38;6126106;23;20026;-65
2022/04/21 09:42:24;;;;;;;27.80;12.75;;;;;;;7.84;65.93;99594.19;6126131;23;20045;-65
2022/04/21 09:47:36;;;;;;;4.72;2.20;;;;;;;7.83;66.11;99603.63;6125922;23;20026;-66
2022/04/21 09:50:12;;;;;;;3.80;2.10;;;;;;;7.89;66.17;99601.53;6125498;23;20029;-66
2022/04/21 09:52:50;;;;;;;7.38;2.58;;;;;;;7.99;65.97;99599.34;6125862;23;20446;-65
2022/04/21 09:55:21;;;;;;;4.93;2.10;;;;;;;7.94;65.66;99599.50;6125626;23;20026;-65
2022/04/21 09:57:52;;;;;;;3.47;1.85;;;;;;;7.83;65.47;99609.16;6125656;23;20104;-65
2022/04/21 10:00:21;;;;;;;3.15;1.70;;;;;;;7.80;65.32;99615.34;6125644;23;20037;-65
2022/04/21 10:02:49;;;;;;;4.55;2.20;;;;;;;7.79;65.23;99610.09;6125728;23;20053;-65
2022/04/21 10:05:17;;;;;;;4.07;1.73;;;;;;;7.81;64.86;99622.50;6125425;23;20057;-65
2022/04/21 10:07:45;;;;;;;3.95;1.52;;;;;;;7.83;65.06;99622.19;6125775;23;20482;-67
2022/04/21 10:10:12;;;;;;;2.35;1.45;;;;;;;7.81;65.02;99639.13;6125458;23;20552;-64
2022/04/21 10:12:40;;;;;;;3.60;1.80;;;;;;;7.80;64.72;99629.19;6125347;23;20018;-64
2022/04/21 10:15:08;;;;;;;3.47;1.90;;;;;;;7.79;65.37;99654.41;6125576;23;20030;-66
2022/04/21 10:17:37;;;;;;;3.65;2.20;;;;;;;7.72;65.43;99638.22;6125630;23;20030;-65
2022/04/21 10:20:07;;;;;;;20.45;9.77;;;;;;;7.64;65.32;99638.94;6125209;23;20032;-65
2022/04/21 10:22:35;;;;;;;4.05;2.10;;;;;;;7.56;65.64;99675.69;6122820;23;20025;-66
2022/04/21 10:25:03;;;;;;;3.35;2.17;;;;;;;7.45;66.22;99674.25;6125704;23;20139;-65
2022/04/21 10:27:44;;;;;;;3.00;1.77;;;;;;;7.47;66.41;99644.34;6125476;23;20022;-64
2022/04/21 10:30:22;;;;;;;4.50;1.80;;;;;;;7.46;66.23;99665.63;6125190;23;20032;-64
2022/04/21 10:32:51;;;;;;;4.38;1.60;;;;;;;7.49;66.46;99651.19;6125280;23;20013;-69
2022/04/21 10:35:41;;;;;;;3.67;2.00;;;;;;;7.57;65.90;99657.94;6123895;23;20026;-64
2022/04/21 10:38:14;;;;;;;4.22;2.10;;;;;;;7.55;66.23;99665.72;6124482;23;20026;-65
2022/04/21 10:41:33;;;;;;;2.58;1.50;;;;;;;7.50;66.51;99676.94;6124465;23;20068;-64
2022/04/21 10:44:01;;;;;;;3.58;2.63;;;;;;;7.50;66.26;99685.22;6123679;23;20029;-70
2022/04/21 10:46:31;;;;;;;3.67;1.90;;;;;;;7.51;66.48;99673.03;6124088;23;20026;-70
2022/04/21 10:48:59;;;;;;;4.28;1.98;;;;;;;7.52;65.94;99663.56;6124522;23;20613;-69
2022/04/21 10:57:12;;;;;;;2.95;1.65;;;;;;;7.56;65.86;99669.31;6125315;23;20105;-64
2022/04/21 10:57:36;;;;;;;14.38;5.85;;;;;;;7.66;65.65;99669.91;6125342;23;20118;-70
2022/04/21 11:00:08;;;;;;;3.97;1.88;;;;;;;7.75;65.02;99668.06;6124361;23;20049;-70
2022/04/21 11:02:44;;;;;;;3.33;1.70;;;;;;;7.78;64.99;99680.47;6124792;23;20022;-69
2022/04/21 11:05:38;;;;;;;3.22;1.98;;;;;;;7.80;64.72;99687.34;6123568;23;20513;-69
2022/04/21 11:08:14;;;;;;;7.60;1.90;;;;;;;7.78;65.30;99683.25;6127086;23;20022;-69
2022/04/21 11:10:45;;;;;;;3.13;1.92;;;;;;;7.81;65.23;99705.56;6126855;23;20565;-69
2022/04/21 11:13:16;;;;;;;5.90;2.00;;;;;;;7.88;64.67;99699.63;6126396;23;20099;-69
2022/04/21 11:15:47;;;;;;;5.13;2.10;;;;;;;7.90;64.90;99706.47;6126124;23;20514;-68
2022/04/21 11:18:21;;;;;;;3.63;1.90;;;;;;;7.91;64.81;99735.84;6126705;23;20046;-68
2022/04/21 11:20:50;;;;;;;4.35;2.03;;;;;;;7.80;64.75;99701.19;6126567;23;20060;-69
2022/04/21 11:23:29;;;;;;;4.10;1.88;;;;;;;7.84;65.18;99699.41;6117558;23;20120;-69
2022/04/21 11:26:04;;;;;;;9.93;2.30;;;;;;;7.83;65.28;99702.50;6156520;23;20032;-63
2022/04/21 11:28:32;;;;;;;4.55;2.08;;;;;;;7.77;65.23;99715.66;6156255;23;20056;-63
2022/04/21 11:31:04;;;;;;;5.85;1.83;;;;;;;7.69;65.28;99710.81;6157486;23;20445;-64
2022/04/21 11:33:31;;;;;;;5.85;1.88;;;;;;;7.64;65.87;99722.00;6156188;23;20108;-65
2022/04/21 11:36:02;;;;;;;5.20;2.35;;;;;;;7.65;66.18;99723.66;6156410;23;20029;-64
2022/04/21 11:38:32;;;;;;;6.35;1.80;;;;;;;7.55;66.52;99728.59;6156272;23;20108;-65
2022/04/21 11:41:03;;;;;;;4.07;2.35;;;;;;;7.48;66.82;99721.53;6156271;23;20084;-65
2022/04/21 11:43:31;;;;;;;3.88;2.13;;;;;;;7.53;66.41;99739.97;6156368;23;20025;-65
2022/04/21 11:46:00;;;;;;;4.90;2.10;;;;;;;7.56;66.70;99722.75;6156859;23;20029;-64
2022/04/21 11:48:36;;;;;;;7.53;2.30;;;;;;;7.52;67.27;99713.41;6156359;23;20025;-65
2022/04/21 11:51:04;;;;;;;5.97;2.05;;;;;;;7.54;67.26;99722.22;6156305;23;20057;-65
2022/04/21 11:53:36;;;;;;;3.90;2.00;;;;;;;7.55;66.99;99718.31;6156105;23;20445;-65
2022/04/21 11:56:04;;;;;;;8.88;2.10;;;;;;;7.60;67.11;99723.75;6156719;23;20441;-65
2022/04/21 11:58:36;;;;;;;3.08;1.80;;;;;;;7.64;67.17;99732.28;6156159;23;20113;-65
2022/04/21 12:06:50;;;;;;;4.13;1.73;;;;;;;7.62;67.59;99732.59;6156384;23;20033;-65
2022/04/21 12:09:22;;;;;;;4.63;2.10;;;;;;;7.55;67.90;99745.19;6155983;23;20025;-65
2022/04/21 12:11:57;;;;;;;3.85;1.98;;;;;;;7.41;68.39;99742.44;6156451;23;20109;-64
2022/04/21 12:14:26;;;;;;;5.20;2.25;;;;;;;7.29;69.30;99728.28;6155889;23;20456;-65
2022/04/21 12:17:00;;;;;;;6.60;2.75;;;;;;;7.38;68.96;99729.22;6156825;23;20058;-65
2022/04/21 12:19:40;;;;;;;5.43;2.00;;;;;;;7.39;69.16;99741.91;6155929;23;20029;-64
2022/04/21 12:22:16;;;;;;;5.57;2.53;;;;;;;7.30;69.47;99740.97;6156211;23;20028;-65
2022/04/21 12:24:44;;;;;;;18.70;6.47;;;;;;;7.30;69.41;99735.44;6155399;23;20025;-65
2022/04/21 12:27:15;;;;;;;4.38;2.28;;;;;;;7.44;68.97;99733.50;6155824;23;20471;-65
2022/04/21 12:30:00;;;;;;;4.57;2.25;;;;;;;7.57;68.57;99742.91;6178930;23;20365;-65
2022/04/21 12:32:39;;;;;;;4.72;2.08;;;;;;;7.61;68.65;99755.84;6156016;23;20026;-66
2022/04/21 12:35:09;;;;;;;3.58;2.00;;;;;;;7.54;68.48;99752.66;6155303;23;20116;-65
2022/04/21 12:37:41;;;;;;;4.57;2.00;;;;;;;7.56;68.50;99755.13;6155888;23;20076;-65